createdAt,value
2019-05-23T01:46:59.779Z,0
2019-05-23T01:47:58.440Z,0
2019-05-23T01:48:57.136Z,0
2019-05-23T01:49:55.662Z,0
2019-05-23T01:50:54.263Z,0
2019-05-23T01:51:52.841Z,0
2019-05-23T01:52:51.385Z,0
2019-05-23T01:53:49.967Z,0
2019-05-23T01:54:48.661Z,0
2019-05-23T01:55:47.414Z,0
2019-05-23T01:56:45.986Z,0
2019-05-23T01:57:44.570Z,0
2019-05-23T01:58:43.437Z,0
2019-05-23T01:59:42.047Z,0
2019-05-23T02:00:40.690Z,0
2019-05-23T02:01:39.319Z,0
2019-05-23T02:02:37.933Z,0
2019-05-23T02:03:36.469Z,0
2019-05-23T02:04:35.337Z,0
2019-05-23T02:05:33.915Z,0
2019-05-23T02:06:32.483Z,0
2019-05-23T02:07:31.045Z,0
2019-05-23T02:08:29.585Z,0
2019-05-23T02:09:28.252Z,0
2019-05-23T02:10:26.837Z,0
2019-05-23T02:11:25.490Z,0
2019-05-23T02:12:24.053Z,0
2019-05-23T02:13:22.679Z,0
2019-05-23T02:14:21.398Z,0
2019-05-23T02:15:20.026Z,0
2019-05-23T02:16:18.610Z,0
2019-05-23T02:17:17.179Z,0
2019-05-23T02:18:15.754Z,0
2019-05-23T02:19:14.323Z,0
2019-05-23T02:20:13.066Z,0
2019-05-23T02:21:11.643Z,0
2019-05-23T02:22:10.264Z,0
2019-05-23T02:23:08.871Z,0
2019-05-23T02:24:07.575Z,0
2019-05-23T02:25:06.144Z,0
2019-05-23T02:26:04.774Z,0
2019-05-23T02:27:03.390Z,0
2019-05-23T02:28:01.944Z,0
2019-05-23T02:29:00.748Z,0
2019-05-23T02:29:59.367Z,0
2019-05-23T02:30:57.920Z,0
2019-05-23T02:31:56.573Z,0
2019-05-23T02:32:55.381Z,0
2019-05-23T02:33:53.949Z,0
2019-05-23T02:34:52.474Z,0
2019-05-23T02:35:51.035Z,0
2019-05-23T02:36:49.623Z,0
2019-05-23T02:37:48.318Z,0
2019-05-23T02:38:47.002Z,0
2019-05-23T02:39:45.589Z,0
2019-05-23T02:40:44.143Z,0
2019-05-23T02:41:42.941Z,0
2019-05-23T02:42:41.528Z,0
2019-05-23T02:43:40.112Z,0
2019-05-23T02:44:38.691Z,0
2019-05-23T02:45:37.293Z,0
2019-05-23T02:46:35.871Z,0
2019-05-23T02:47:34.568Z,0
2019-05-23T02:48:33.271Z,0
2019-05-23T02:49:31.839Z,0
2019-05-23T02:50:30.431Z,0
2019-05-23T02:51:29.113Z,0
2019-05-23T02:52:27.702Z,0
2019-05-23T02:53:26.248Z,0
2019-05-23T02:54:24.789Z,0
2019-05-23T02:55:23.365Z,0
2019-05-23T02:56:21.935Z,0
2019-05-23T02:57:20.600Z,0
2019-05-23T02:58:19.367Z,0
2019-05-23T02:59:17.856Z,0
2019-05-23T03:00:16.460Z,0
2019-05-23T03:01:15.336Z,0
2019-05-23T03:02:13.908Z,0
2019-05-23T03:03:12.468Z,0
2019-05-23T03:04:11.059Z,0
2019-05-23T03:05:09.683Z,0
2019-05-23T03:06:08.288Z,0
2019-05-23T03:07:07.057Z,0
2019-05-23T03:08:05.614Z,0
2019-05-23T03:09:04.199Z,0
2019-05-23T03:10:02.938Z,0
2019-05-23T03:11:01.467Z,0
2019-05-23T03:12:00.014Z,0
2019-05-23T03:12:58.589Z,0
2019-05-23T03:13:57.134Z,0
2019-05-23T03:14:55.669Z,0
2019-05-23T03:15:54.402Z,0
2019-05-23T03:16:53.232Z,0
2019-05-23T03:17:51.815Z,0
2019-05-23T03:18:50.325Z,0
2019-05-23T03:19:49.091Z,0
2019-05-23T03:20:47.658Z,0
2019-05-23T03:21:46.195Z,0
2019-05-23T03:22:44.742Z,0
2019-05-23T03:23:43.296Z,0
2019-05-23T03:24:41.890Z,0
2019-05-23T03:25:40.561Z,5
2019-05-23T03:26:39.173Z,5
2019-05-23T03:27:37.723Z,5
2019-05-23T03:28:36.390Z,5
2019-05-23T03:29:35.192Z,5
2019-05-23T03:30:33.831Z,5
2019-05-23T03:31:32.999Z,5
2019-05-23T03:32:37.813Z,5
2019-05-23T03:33:29.508Z,5
2019-05-23T03:34:28.087Z,5
2019-05-23T03:35:26.741Z,5
2019-05-23T03:36:25.473Z,5
2019-05-23T03:37:24.035Z,5
2019-05-23T03:38:22.903Z,10
2019-05-23T03:39:21.483Z,10
2019-05-23T03:40:20.036Z,10
2019-05-23T03:41:18.626Z,10
2019-05-23T03:42:17.245Z,15
2019-05-23T03:43:15.775Z,15
2019-05-23T03:44:14.425Z,15
2019-05-23T03:45:13.260Z,20
2019-05-23T03:46:11.872Z,20
2019-05-23T03:47:10.486Z,20
2019-05-23T03:48:09.066Z,25
2019-05-23T03:49:07.633Z,25
2019-05-23T03:50:06.180Z,25
2019-05-23T03:51:04.743Z,30
2019-05-23T03:52:03.300Z,30
2019-05-23T03:53:02.003Z,30
2019-05-23T03:54:00.852Z,30
2019-05-23T03:54:59.493Z,30
2019-05-23T03:55:58.043Z,30
2019-05-23T03:56:56.613Z,30
2019-05-23T03:57:55.246Z,35
2019-05-23T03:58:53.818Z,35
2019-05-23T03:59:52.942Z,35
2019-05-23T04:00:51.602Z,35
2019-05-23T04:01:50.175Z,35
2019-05-23T04:02:48.802Z,40
2019-05-23T04:03:47.379Z,40
2019-05-23T04:04:46.180Z,40
2019-05-23T04:05:44.927Z,45
2019-05-23T04:06:43.516Z,45
2019-05-23T04:07:42.063Z,45
2019-05-23T04:08:41.969Z,50
2019-05-23T04:09:40.527Z,50
2019-05-23T04:10:39.074Z,50
2019-05-23T04:11:37.642Z,55
2019-05-23T04:12:36.280Z,55
2019-05-23T04:13:35.081Z,60
2019-05-23T04:14:33.646Z,60
2019-05-23T04:15:32.349Z,60
2019-05-23T04:16:31.087Z,65
2019-05-23T04:17:29.631Z,65
2019-05-23T04:18:28.164Z,70
2019-05-23T04:19:27.177Z,70
2019-05-23T04:20:25.842Z,75
2019-05-23T04:21:24.277Z,75
2019-05-23T04:22:23.033Z,75
2019-05-23T04:23:21.616Z,80
2019-05-23T04:24:20.194Z,85
2019-05-23T04:25:18.757Z,90
2019-05-23T04:26:17.326Z,90
2019-05-23T04:27:15.909Z,95
2019-05-23T04:28:14.593Z,100
2019-05-23T04:29:13.281Z,105
2019-05-23T04:30:11.839Z,110
2019-05-23T04:31:12.884Z,100
2019-05-23T04:32:09.343Z,105
2019-05-23T04:33:07.828Z,105
2019-05-23T04:34:06.355Z,110
2019-05-23T04:35:05.112Z,110
2019-05-23T04:36:03.676Z,115
2019-05-23T04:37:02.816Z,115
2019-05-23T04:38:01.452Z,115
2019-05-23T04:39:00.011Z,115
2019-05-23T04:39:58.761Z,115
2019-05-23T04:40:57.473Z,120
2019-05-23T04:41:56.038Z,120
2019-05-23T04:42:54.855Z,125
2019-05-23T04:43:53.696Z,125
2019-05-23T04:44:52.282Z,125
2019-05-23T04:45:51.062Z,130
2019-05-23T04:46:49.617Z,135
2019-05-23T04:47:48.237Z,135
2019-05-23T04:48:47.028Z,135
2019-05-23T04:49:45.578Z,140
2019-05-23T04:50:44.258Z,145
2019-05-23T04:51:43.248Z,140
2019-05-23T04:52:41.820Z,135
2019-05-23T04:53:40.468Z,135
2019-05-23T04:54:39.126Z,135
2019-05-23T04:55:37.679Z,140
2019-05-23T04:56:36.312Z,140
2019-05-23T04:57:35.044Z,140
2019-05-23T04:58:33.601Z,145
2019-05-23T04:59:32.142Z,145
2019-05-23T05:00:31.107Z,145
2019-05-23T05:01:29.672Z,145
2019-05-23T05:02:28.210Z,145
2019-05-23T05:03:26.804Z,150
2019-05-23T05:04:25.369Z,150
2019-05-23T05:05:23.934Z,165
2019-05-23T05:06:22.604Z,185
2019-05-23T05:07:21.269Z,180
2019-05-23T05:08:19.798Z,160
2019-05-23T05:09:18.384Z,155
2019-05-23T05:10:17.266Z,155
2019-05-23T05:11:15.943Z,160
2019-05-23T05:12:14.691Z,170
2019-05-23T05:13:13.366Z,175
2019-05-23T05:14:11.909Z,160
2019-05-23T05:15:10.694Z,160
2019-05-23T05:16:09.403Z,170
2019-05-23T05:17:08.014Z,170
2019-05-23T05:18:06.532Z,170
2019-05-23T05:19:05.123Z,175
2019-05-23T05:20:03.693Z,185
2019-05-23T05:21:02.362Z,190
2019-05-23T05:22:01.293Z,190
2019-05-23T05:22:59.836Z,195
2019-05-23T05:23:58.433Z,195
2019-05-23T05:24:57.101Z,200
2019-05-23T05:25:55.548Z,205
2019-05-23T05:26:54.162Z,210
2019-05-23T05:27:52.930Z,210
2019-05-23T05:28:51.586Z,215
2019-05-23T05:29:50.176Z,220
2019-05-23T05:30:48.856Z,220
2019-05-23T05:31:47.489Z,225
2019-05-23T05:32:46.703Z,230
2019-05-23T05:33:45.364Z,230
2019-05-23T05:34:43.920Z,235
2019-05-23T05:35:42.708Z,235
2019-05-23T05:36:41.301Z,235
2019-05-23T05:37:39.852Z,240
2019-05-23T05:38:38.584Z,240
2019-05-23T05:39:37.403Z,245
2019-05-23T05:40:35.989Z,245
2019-05-23T05:41:34.811Z,250
2019-05-23T05:42:33.326Z,255
2019-05-23T05:43:31.904Z,260
2019-05-23T05:44:30.560Z,260
2019-05-23T05:45:29.265Z,265
2019-05-23T05:46:27.887Z,270
2019-05-23T05:47:26.591Z,280
2019-05-23T05:48:25.388Z,295
2019-05-23T05:49:23.926Z,300
2019-05-23T05:50:22.565Z,315
2019-05-23T05:51:21.153Z,320
2019-05-23T05:52:19.711Z,330
2019-05-23T05:53:18.260Z,325
2019-05-23T05:54:17.128Z,330
2019-05-23T05:55:15.861Z,320
2019-05-23T05:56:14.434Z,315
2019-05-23T05:57:13.056Z,300
2019-05-23T05:58:11.606Z,285
2019-05-23T05:59:10.251Z,285
2019-05-23T06:00:12.525Z,270
2019-05-23T06:01:07.565Z,245
2019-05-23T06:02:06.122Z,240
2019-05-23T06:03:05.728Z,230
2019-05-23T06:04:03.452Z,235
2019-05-23T06:05:02.016Z,230
2019-05-23T06:06:00.680Z,220
2019-05-23T06:06:59.231Z,210
2019-05-23T06:07:57.807Z,215
2019-05-23T06:08:56.513Z,215
2019-05-23T06:09:55.231Z,250
2019-05-23T06:10:53.815Z,260
2019-05-23T06:11:52.388Z,280
2019-05-23T06:12:50.997Z,265
2019-05-23T06:13:50.931Z,275
2019-05-23T06:14:49.609Z,260
2019-05-23T06:15:48.734Z,245
2019-05-23T06:16:47.284Z,265
2019-05-23T06:17:45.845Z,270
2019-05-23T06:18:44.443Z,265
2019-05-23T06:19:43.124Z,255
2019-05-23T06:20:41.688Z,250
2019-05-23T06:21:40.287Z,265
2019-05-23T06:22:38.969Z,265
2019-05-23T06:23:37.637Z,255
2019-05-23T06:24:45.849Z,250
2019-05-23T06:25:35.124Z,250
2019-05-23T06:26:33.580Z,260
2019-05-23T06:27:32.189Z,270
2019-05-23T06:28:31.586Z,275
2019-05-23T06:29:30.218Z,270
2019-05-23T06:30:32.536Z,270
2019-05-23T06:31:27.453Z,265
2019-05-23T06:32:26.009Z,265
2019-05-23T06:33:24.769Z,265
2019-05-23T06:34:23.406Z,255
2019-05-23T06:35:21.972Z,255
2019-05-23T06:36:20.538Z,245
2019-05-23T06:37:19.141Z,215
2019-05-23T06:38:17.717Z,225
2019-05-23T06:39:16.489Z,280
2019-05-23T06:40:15.104Z,280
2019-05-23T06:41:13.698Z,295
2019-05-23T06:42:12.277Z,290
2019-05-23T06:43:10.945Z,295
2019-05-23T06:44:09.538Z,295
2019-05-23T06:45:08.145Z,295
2019-05-23T06:46:06.795Z,300
2019-05-23T06:47:05.334Z,300
2019-05-23T06:48:04.114Z,285
2019-05-23T06:49:02.857Z,290
2019-05-23T06:50:01.731Z,295
2019-05-23T06:51:00.177Z,290
2019-05-23T06:51:58.931Z,265
2019-05-23T06:52:57.447Z,265
2019-05-23T06:53:56.048Z,280
2019-05-23T06:54:54.821Z,285
2019-05-23T06:55:53.482Z,290
2019-05-23T06:56:52.061Z,290
2019-05-23T06:57:50.667Z,295
2019-05-23T06:58:49.435Z,295
2019-05-23T06:59:47.976Z,290
2019-05-23T07:00:46.604Z,290
2019-05-23T07:01:45.130Z,290
2019-05-23T07:02:43.728Z,290
2019-05-23T07:03:43.703Z,285
2019-05-23T07:04:41.274Z,285
2019-05-23T07:05:39.820Z,285
2019-05-23T07:06:38.465Z,285
2019-05-23T07:07:37.082Z,280
2019-05-23T07:08:35.674Z,280
2019-05-23T07:09:34.234Z,280
2019-05-23T07:10:32.876Z,275
2019-05-23T07:11:31.533Z,275
2019-05-23T07:12:30.115Z,275
2019-05-23T07:13:28.778Z,270
2019-05-23T07:14:27.391Z,265
2019-05-23T07:15:25.977Z,235
2019-05-23T07:16:24.740Z,255
2019-05-23T07:17:23.260Z,250
2019-05-23T07:18:21.795Z,255
2019-05-23T07:19:20.641Z,250
2019-05-23T07:20:19.498Z,250
2019-05-23T07:21:18.058Z,255
2019-05-23T07:22:18.655Z,250
2019-05-23T07:23:15.481Z,250
2019-05-23T07:24:14.145Z,245
2019-05-23T07:25:13.069Z,240
2019-05-23T07:26:11.723Z,240
2019-05-23T07:27:10.291Z,240
2019-05-23T07:28:08.937Z,245
2019-05-23T07:29:07.496Z,245
2019-05-23T07:30:06.052Z,250
2019-05-23T07:31:05.393Z,245
2019-05-23T07:32:03.980Z,240
2019-05-23T07:33:02.811Z,240
2019-05-23T07:34:02.682Z,240
2019-05-23T07:35:00.125Z,230
2019-05-23T07:35:58.770Z,230
2019-05-23T07:36:57.522Z,230
2019-05-23T07:37:56.135Z,225
2019-05-23T07:38:54.695Z,225
2019-05-23T07:39:53.241Z,230
2019-05-23T07:40:51.855Z,225
2019-05-23T07:41:50.472Z,225
2019-05-23T07:42:49.223Z,240
2019-05-23T07:43:47.767Z,225
2019-05-23T07:44:48.498Z,235
2019-05-23T07:45:44.895Z,235
2019-05-23T07:46:43.467Z,240
2019-05-23T07:47:42.068Z,240
2019-05-23T07:48:40.727Z,240
2019-05-23T07:49:39.325Z,240
2019-05-23T07:50:37.905Z,235
2019-05-23T07:51:36.623Z,235
2019-05-23T07:52:35.335Z,235
2019-05-23T07:53:33.969Z,235
2019-05-23T07:54:32.660Z,235
2019-05-23T07:55:31.265Z,230
2019-05-23T07:56:29.850Z,230
2019-05-23T07:57:28.428Z,230
2019-05-23T07:58:26.998Z,225
2019-05-23T07:59:25.565Z,225
2019-05-23T08:00:24.165Z,220
2019-05-23T08:01:22.805Z,220
2019-05-23T08:02:25.394Z,220
2019-05-23T08:03:20.047Z,215
2019-05-23T08:04:21.608Z,210
2019-05-23T08:05:17.465Z,205
2019-05-23T08:06:15.999Z,210
2019-05-23T08:07:14.582Z,210
2019-05-23T08:08:13.243Z,210
2019-05-23T08:09:11.650Z,205
2019-05-23T08:10:10.211Z,200
2019-05-23T08:11:08.973Z,200
2019-05-23T08:12:07.646Z,200
2019-05-23T08:13:06.270Z,195
2019-05-23T08:14:05.085Z,195
2019-05-23T08:15:03.627Z,195
2019-05-23T08:16:02.368Z,195
2019-05-23T08:17:01.377Z,190
2019-05-23T08:17:59.941Z,190
2019-05-23T08:18:58.685Z,190
2019-05-23T08:19:57.309Z,180
2019-05-23T08:20:55.930Z,180
2019-05-23T08:21:54.477Z,175
2019-05-23T08:22:53.201Z,175
2019-05-23T08:23:51.812Z,175
2019-05-23T08:24:51.193Z,175
2019-05-23T08:25:48.970Z,175
2019-05-23T08:26:47.611Z,175
2019-05-23T08:27:46.161Z,175
2019-05-23T08:29:00.789Z,175
2019-05-23T08:29:43.659Z,175
2019-05-23T08:30:42.177Z,170
2019-05-23T08:31:41.073Z,170
2019-05-23T08:32:39.773Z,170
2019-05-23T08:33:38.306Z,170
2019-05-23T08:34:41.840Z,165
2019-05-23T08:35:35.501Z,165
2019-05-23T08:36:34.252Z,165
2019-05-23T08:37:32.857Z,165
2019-05-23T08:38:31.537Z,165
2019-05-23T08:39:30.082Z,160
2019-05-23T08:40:28.787Z,160
2019-05-23T08:41:27.502Z,160
2019-05-23T08:42:26.070Z,160
2019-05-23T08:43:24.631Z,155
2019-05-23T08:44:23.193Z,155
2019-05-23T08:45:22.031Z,155
2019-05-23T08:46:20.691Z,155
2019-05-23T08:47:19.401Z,155
2019-05-23T08:48:17.978Z,155
2019-05-23T08:49:16.708Z,155
2019-05-23T08:50:15.410Z,155
2019-05-23T08:51:14.044Z,155
2019-05-23T08:52:12.619Z,150
2019-05-23T08:53:11.402Z,150
2019-05-23T08:54:10.199Z,150
2019-05-23T08:55:08.716Z,150
2019-05-23T08:56:17.872Z,150
2019-05-23T08:57:05.930Z,150
2019-05-23T08:58:04.669Z,145
2019-05-23T08:59:03.346Z,150
2019-05-23T09:00:01.901Z,150
2019-05-23T09:01:00.529Z,150
2019-05-23T09:01:59.333Z,150
2019-05-23T09:02:58.899Z,150
2019-05-23T09:03:56.453Z,150
2019-05-23T09:05:04.076Z,155
2019-05-23T09:05:53.670Z,155
2019-05-23T09:06:52.248Z,155
2019-05-23T09:07:51.111Z,155
2019-05-23T09:08:49.816Z,150
2019-05-23T09:09:48.384Z,155
2019-05-23T09:10:47.093Z,155
2019-05-23T09:11:45.681Z,155
2019-05-23T09:12:44.291Z,155
2019-05-23T09:13:43.231Z,155
2019-05-23T09:14:41.820Z,155
2019-05-23T09:15:40.368Z,155
2019-05-23T09:16:39.032Z,150
2019-05-23T09:17:51.926Z,150
2019-05-23T09:18:36.199Z,150
2019-05-23T09:19:34.783Z,145
2019-05-23T09:20:33.370Z,145
2019-05-23T09:21:32.022Z,145
2019-05-23T09:22:30.748Z,145
2019-05-23T09:23:29.452Z,145
2019-05-23T09:24:28.064Z,145
2019-05-23T09:25:26.705Z,145
2019-05-23T09:26:25.295Z,145
2019-05-23T09:27:23.894Z,145
2019-05-23T09:28:22.673Z,145
2019-05-23T09:29:21.518Z,145
2019-05-23T09:30:20.076Z,145
2019-05-23T09:31:18.782Z,140
2019-05-23T09:32:17.376Z,140
2019-05-23T09:33:16.098Z,140
2019-05-23T09:34:14.907Z,140
2019-05-23T09:35:20.723Z,140
2019-05-23T09:36:12.051Z,140
2019-05-23T09:37:10.895Z,140
2019-05-23T09:38:09.476Z,145
2019-05-23T09:39:08.050Z,145
2019-05-23T09:40:06.832Z,145
2019-05-23T09:41:05.436Z,145
2019-05-23T09:42:04.030Z,145
2019-05-23T09:43:02.598Z,145
2019-05-23T09:44:01.551Z,145
2019-05-23T09:45:00.147Z,150
2019-05-23T09:45:58.906Z,150
2019-05-23T09:46:57.543Z,145
2019-05-23T09:47:56.238Z,145
2019-05-23T09:48:55.098Z,140
2019-05-23T09:49:54.328Z,140
2019-05-23T09:50:52.500Z,145
2019-05-23T09:51:55.119Z,145
2019-05-23T09:52:49.845Z,150
2019-05-23T09:53:48.452Z,150
2019-05-23T09:54:47.335Z,150
2019-05-23T09:55:45.720Z,150
2019-05-23T09:56:44.551Z,135
2019-05-23T09:57:43.232Z,140
2019-05-23T09:58:41.800Z,125
2019-05-23T09:59:40.443Z,130
2019-05-23T10:00:39.104Z,125
2019-05-23T10:01:37.682Z,125
2019-05-23T10:02:36.204Z,130
2019-05-23T10:03:34.867Z,135
2019-05-23T10:04:33.486Z,155
2019-05-23T10:05:42.476Z,165
2019-05-23T10:06:31.016Z,170
2019-05-23T10:07:29.754Z,170
2019-05-23T10:08:28.356Z,170
2019-05-23T10:09:26.921Z,170
2019-05-23T10:10:25.515Z,160
2019-05-23T10:11:24.105Z,165
2019-05-23T10:12:22.811Z,155
2019-05-23T10:13:37.670Z,155
2019-05-23T10:14:20.180Z,145
2019-05-23T10:15:18.951Z,145
2019-05-23T10:16:17.619Z,145
2019-05-23T10:17:16.186Z,135
2019-05-23T10:18:14.877Z,135
2019-05-23T10:19:13.762Z,135
2019-05-23T10:20:12.367Z,130
2019-05-23T10:21:10.941Z,130
2019-05-23T10:22:09.580Z,130
2019-05-23T10:23:08.154Z,130
2019-05-23T10:24:07.040Z,130
2019-05-23T10:25:05.801Z,135
2019-05-23T10:26:04.397Z,135
2019-05-23T10:27:03.201Z,135
2019-05-23T10:28:01.928Z,135
2019-05-23T10:29:00.586Z,100
2019-05-23T10:29:59.330Z,105
2019-05-23T10:30:57.992Z,105
2019-05-23T10:31:56.553Z,105
2019-05-23T10:32:55.231Z,120
2019-05-23T10:33:53.888Z,130
2019-05-23T10:34:52.586Z,135
2019-05-23T10:36:00.157Z,140
2019-05-23T10:36:49.804Z,140
2019-05-23T10:37:49.197Z,140
2019-05-23T10:38:48.026Z,140
2019-05-23T10:39:46.868Z,140
2019-05-23T10:40:45.411Z,140
2019-05-23T10:41:44.237Z,135
2019-05-23T10:42:43.015Z,130
2019-05-23T10:43:41.882Z,125
2019-05-23T10:44:44.315Z,130
2019-05-23T10:45:39.139Z,120
2019-05-23T10:46:37.726Z,120
2019-05-23T10:47:36.311Z,110
2019-05-23T10:48:35.133Z,115
2019-05-23T10:49:33.844Z,115
2019-05-23T10:50:43.991Z,100
2019-05-23T10:51:30.954Z,100
2019-05-23T10:52:29.538Z,115
2019-05-23T10:53:28.125Z,120
2019-05-23T10:54:26.779Z,120
2019-05-23T10:55:26.423Z,115
2019-05-23T10:56:25.015Z,110
2019-05-23T10:57:23.734Z,110
2019-05-23T10:58:22.289Z,110
2019-05-23T10:59:21.040Z,100
2019-05-23T11:00:19.603Z,115
2019-05-23T11:01:18.177Z,115
2019-05-23T11:02:16.805Z,110
2019-05-23T11:03:15.413Z,110
2019-05-23T11:04:13.998Z,110
2019-05-23T11:05:14.159Z,110
2019-05-23T11:06:15.900Z,110
2019-05-23T11:07:10.015Z,110
2019-05-23T11:08:08.728Z,110
2019-05-23T11:09:07.429Z,110
2019-05-23T11:10:06.181Z,105
2019-05-23T11:11:04.951Z,105
2019-05-23T11:12:03.676Z,105
2019-05-23T11:13:02.317Z,105
2019-05-23T11:14:00.876Z,105
2019-05-23T11:14:59.466Z,105
2019-05-23T11:15:58.053Z,105
2019-05-23T11:16:56.728Z,105
2019-05-23T11:17:55.422Z,105
2019-05-23T11:18:54.044Z,100
2019-05-23T11:19:52.637Z,105
2019-05-23T11:20:52.309Z,105
2019-05-23T11:21:50.969Z,90
2019-05-23T11:22:49.545Z,105
2019-05-23T11:23:48.086Z,105
2019-05-23T11:24:46.841Z,105
2019-05-23T11:25:45.592Z,105
2019-05-23T11:26:44.921Z,105
2019-05-23T11:27:44.321Z,105
2019-05-23T11:28:43.101Z,105
2019-05-23T11:29:41.729Z,105
2019-05-23T11:30:40.436Z,105
2019-05-23T11:31:40.578Z,105
2019-05-23T11:32:39.499Z,105
2019-05-23T11:33:38.926Z,105
2019-05-23T11:34:38.433Z,105
2019-05-23T11:35:38.562Z,105
2019-05-23T11:36:37.833Z,110
2019-05-23T11:37:37.256Z,110
2019-05-23T11:38:37.417Z,110
2019-05-23T11:39:41.871Z,105
2019-05-23T11:40:34.079Z,105
2019-05-23T11:41:33.424Z,100
2019-05-23T11:42:31.340Z,90
2019-05-23T11:43:29.907Z,105
2019-05-23T11:44:28.545Z,105
2019-05-23T11:45:27.087Z,105
2019-05-23T11:46:25.700Z,105
2019-05-23T11:47:24.332Z,105
2019-05-23T11:48:23.265Z,105
2019-05-23T11:49:21.895Z,105
2019-05-23T11:50:20.542Z,105
2019-05-23T11:51:19.162Z,110
2019-05-23T11:52:17.755Z,110
2019-05-23T11:53:16.398Z,110
2019-05-23T11:54:15.057Z,110
2019-05-23T11:55:13.726Z,110
2019-05-23T11:56:12.459Z,110
2019-05-23T11:57:11.235Z,105
2019-05-23T11:58:09.798Z,105
2019-05-23T11:59:08.489Z,105
2019-05-23T12:00:07.184Z,105
2019-05-23T12:01:05.839Z,105
2019-05-23T12:02:04.395Z,105
2019-05-23T12:03:03.298Z,105
2019-05-23T12:04:01.878Z,105
2019-05-23T12:05:00.430Z,105
2019-05-23T12:05:58.999Z,105
2019-05-23T12:06:57.669Z,105
2019-05-23T12:07:56.233Z,100
2019-05-23T12:08:55.043Z,100
2019-05-23T12:09:53.953Z,100
2019-05-23T12:10:52.475Z,100
2019-05-23T12:11:51.163Z,100
2019-05-23T12:12:49.807Z,100
2019-05-23T12:13:48.364Z,100
2019-05-23T12:14:47.086Z,105
2019-05-23T12:15:46.010Z,105
2019-05-23T12:16:44.590Z,105
2019-05-23T12:17:43.132Z,100
2019-05-23T12:18:41.754Z,100
2019-05-23T12:19:40.315Z,100
2019-05-23T12:20:39.058Z,100
2019-05-23T12:21:37.643Z,100
2019-05-23T12:22:36.317Z,100
2019-05-23T12:23:35.061Z,100
2019-05-23T12:24:35.428Z,100
2019-05-23T12:25:32.268Z,100
2019-05-23T12:26:31.007Z,100
2019-05-23T12:27:29.709Z,100
2019-05-23T12:28:28.260Z,105
2019-05-23T12:29:26.926Z,105
2019-05-23T12:30:25.658Z,105
2019-05-23T12:31:24.316Z,105
2019-05-23T12:32:22.864Z,105
2019-05-23T12:33:21.529Z,105
2019-05-23T12:34:20.152Z,100
2019-05-23T12:35:18.964Z,100
2019-05-23T12:36:17.669Z,100
2019-05-23T12:37:19.812Z,100
2019-05-23T12:38:14.915Z,100
2019-05-23T12:39:13.511Z,100
2019-05-23T12:40:12.110Z,100
2019-05-23T12:41:10.787Z,100
2019-05-23T12:42:09.446Z,100
2019-05-23T12:43:07.890Z,100
2019-05-23T12:44:06.570Z,100
2019-05-23T12:45:05.555Z,100
2019-05-23T12:46:04.180Z,100
2019-05-23T12:47:02.764Z,100
2019-05-23T12:48:01.593Z,100
2019-05-23T12:49:00.180Z,100
2019-05-23T12:49:58.816Z,100
2019-05-23T12:50:57.630Z,100
2019-05-23T12:51:56.261Z,100
2019-05-23T12:52:54.931Z,100
2019-05-23T12:53:53.733Z,100
2019-05-23T12:54:52.357Z,100
2019-05-23T12:55:51.102Z,100
2019-05-23T12:56:49.720Z,100
2019-05-23T12:57:48.379Z,100
2019-05-23T12:58:47.070Z,100
2019-05-23T12:59:45.714Z,100
2019-05-23T13:00:44.293Z,100
2019-05-23T13:01:43.418Z,100
2019-05-23T13:02:42.006Z,100
2019-05-23T13:03:40.664Z,100
2019-05-23T13:04:39.603Z,100
2019-05-23T13:05:38.181Z,100
2019-05-23T13:06:36.868Z,100
2019-05-23T13:07:36.745Z,100
2019-05-23T13:08:34.330Z,100
2019-05-23T13:09:33.004Z,100
2019-05-23T13:10:31.672Z,100
2019-05-23T13:11:30.692Z,100
2019-05-23T13:12:29.481Z,100
2019-05-23T13:13:28.048Z,100
2019-05-23T13:14:26.700Z,100
2019-05-23T13:15:25.364Z,100
2019-05-23T13:16:23.949Z,100
2019-05-23T13:17:22.511Z,100
2019-05-23T13:18:21.310Z,100
2019-05-23T13:19:19.947Z,100
2019-05-23T13:20:18.586Z,100
2019-05-23T13:21:17.665Z,100
2019-05-23T13:22:16.220Z,100
2019-05-23T13:23:20.594Z,100
2019-05-23T13:24:13.571Z,100
2019-05-23T13:25:12.159Z,100
2019-05-23T13:26:10.800Z,100
2019-05-23T13:27:09.527Z,100
2019-05-23T13:28:08.127Z,100
2019-05-23T13:29:06.686Z,100
2019-05-23T13:30:05.376Z,100
2019-05-23T13:31:03.921Z,100
2019-05-23T13:32:02.496Z,100
2019-05-23T13:33:03.665Z,100
2019-05-23T13:33:59.841Z,100
2019-05-23T13:34:58.746Z,100
2019-05-23T13:35:57.403Z,100
2019-05-23T13:36:56.118Z,100
2019-05-23T13:37:54.746Z,95
2019-05-23T13:38:53.401Z,100
2019-05-23T13:39:52.173Z,100
2019-05-23T13:40:50.859Z,100
2019-05-23T13:41:49.462Z,100
2019-05-23T13:42:48.052Z,100
2019-05-23T13:43:46.725Z,100
2019-05-23T13:44:45.560Z,100
2019-05-23T13:45:44.250Z,100
2019-05-23T13:46:43.062Z,100
2019-05-23T13:47:41.652Z,100
2019-05-23T13:48:40.523Z,100
2019-05-23T13:49:39.215Z,100
2019-05-23T13:50:37.901Z,100
2019-05-23T13:51:36.620Z,95
2019-05-23T13:52:35.348Z,95
2019-05-23T13:53:33.944Z,100
2019-05-23T13:54:36.083Z,100
2019-05-23T13:55:31.568Z,100
2019-05-23T13:56:30.629Z,95
2019-05-23T13:57:29.398Z,100
2019-05-23T13:58:28.089Z,100
2019-05-23T13:59:26.767Z,100
2019-05-23T14:00:25.544Z,95
2019-05-23T14:01:24.087Z,100
2019-05-23T14:02:22.798Z,95
2019-05-23T14:03:21.577Z,95
2019-05-23T14:04:20.209Z,95
2019-05-23T14:05:19.539Z,95
2019-05-23T14:06:17.722Z,95
2019-05-23T14:07:16.299Z,95
2019-05-23T14:08:18.902Z,95
2019-05-23T14:09:13.810Z,95
2019-05-23T14:10:12.637Z,95
2019-05-23T14:11:12.116Z,95
2019-05-23T14:12:26.246Z,95
2019-05-23T14:13:09.679Z,95
2019-05-23T14:14:08.699Z,95
2019-05-23T14:15:06.860Z,95
2019-05-23T14:16:05.557Z,95
2019-05-23T14:17:04.142Z,95
2019-05-23T14:18:02.965Z,95
2019-05-23T14:19:01.708Z,95
2019-05-23T14:20:00.375Z,95
2019-05-23T14:20:59.522Z,95
2019-05-23T14:21:58.121Z,95
2019-05-23T14:22:56.899Z,95
2019-05-23T14:23:55.751Z,95
2019-05-23T14:24:54.307Z,95
2019-05-23T14:25:53.235Z,95
2019-05-23T14:26:52.019Z,95
2019-05-23T14:27:50.727Z,95
2019-05-23T14:28:49.966Z,95
2019-05-23T14:29:48.579Z,95
2019-05-23T14:30:47.390Z,95
2019-05-23T14:31:46.243Z,95
2019-05-23T14:32:45.352Z,95
2019-05-23T14:33:45.144Z,95
2019-05-23T14:34:44.167Z,95
2019-05-23T14:35:43.002Z,95
2019-05-23T14:36:41.727Z,95
2019-05-23T14:37:40.422Z,95
2019-05-23T14:38:39.413Z,95
2019-05-23T14:39:38.074Z,95
2019-05-23T14:42:18.484Z,95
2019-05-23T14:43:17.215Z,95
2019-05-23T14:44:15.808Z,90
2019-05-23T14:45:14.398Z,90
2019-05-23T14:46:13.456Z,90
2019-05-23T14:47:12.137Z,90
2019-05-23T14:48:12.351Z,90
2019-05-23T14:51:35.134Z,90
2019-05-23T14:52:33.477Z,90
2019-05-23T14:53:32.039Z,90
2019-05-23T14:54:30.662Z,90
2019-05-23T14:55:29.465Z,90
2019-05-23T14:58:09.896Z,90
2019-05-23T14:59:08.676Z,90
2019-05-23T15:00:08.103Z,90
2019-05-23T15:01:07.439Z,90
2019-05-23T15:02:06.064Z,90
2019-05-23T15:04:46.885Z,90
2019-05-23T15:09:38.118Z,90
2019-05-23T15:10:37.068Z,90
2019-05-23T15:11:35.788Z,90
2019-05-23T15:12:35.447Z,90
2019-05-23T15:13:34.573Z,90
2019-05-23T15:14:32.800Z,90
2019-05-23T15:15:31.743Z,90
2019-05-23T15:16:30.514Z,90
2019-05-23T15:17:29.331Z,90
2019-05-23T15:18:28.452Z,90
2019-05-23T15:19:40.330Z,90
2019-05-23T15:20:25.979Z,90
2019-05-23T15:21:25.007Z,90
2019-05-23T15:22:23.685Z,90
2019-05-23T15:23:22.575Z,90
2019-05-23T15:24:21.617Z,90
2019-05-23T15:25:20.886Z,90
2019-05-23T15:26:23.289Z,90
2019-05-23T15:28:44.235Z,90
2019-05-23T15:29:43.306Z,90
2019-05-23T15:30:41.857Z,90
2019-05-23T15:31:40.631Z,90
2019-05-23T15:32:39.648Z,90
2019-05-23T15:33:38.270Z,90
2019-05-23T15:34:37.684Z,90
2019-05-23T15:35:36.499Z,90
2019-05-23T15:36:35.292Z,90
2019-05-23T15:37:34.044Z,90
2019-05-23T15:38:32.770Z,90
2019-05-23T15:39:31.711Z,90